La rose des vents
Donnes mto: Semaine 31/01/22 - 06/02/22 (S 5)
Date Horaire Temp. E. Hum. E. P.atmo. Pluie Vent 1mn Direction Ensoleilleme Ev.Tr. Solaire P. de rose Temp au vent Rafales
31/01/2022 00:00 9,3 C 86 % 1018,4 hPa 0,0 l/m 0,2 km/h (0 Bft) O 0,00 h 0,000 mm 0 W/m 7,1 C 9,3 C 1,0 km/h (0 Bft)
31/01/2022 01:00 8,9 C 85 % 1018,1 hPa 0,0 l/m 0,1 km/h (0 Bft) O 0,00 h 0,000 mm 0 W/m 6,6 C 8,9 C 0,4 km/h (0 Bft)
31/01/2022 02:00 8,6 C 85 % 1017,7 hPa 0,0 l/m 0,0 km/h (0 Bft) N 0,00 h 0,000 mm 0 W/m 6,2 C 8,6 C 0,1 km/h (0 Bft)
31/01/2022 03:00 8,6 C 85 % 1017,1 hPa 0,0 l/m 0,2 km/h (0 Bft) O 0,00 h 0,000 mm 0 W/m 6,2 C 8,6 C 0,7 km/h (0 Bft)
31/01/2022 04:00 8,4 C 85 % 1016,1 hPa 0,0 l/m 0,1 km/h (0 Bft) O 0,00 h 0,000 mm 0 W/m 6,1 C 8,4 C 0,5 km/h (0 Bft)
31/01/2022 05:00 8,4 C 85 % 1015,4 hPa 0,0 l/m 1,5 km/h (1 Bft) O 0,00 h 0,000 mm 0 W/m 6,0 C 8,3 C 3,3 km/h (1 Bft)
31/01/2022 06:00 8,1 C 85 % 1014,5 hPa 0,0 l/m 2,4 km/h (1 Bft) O 0,00 h 0,000 mm 0 W/m 5,7 C 8,0 C 5,7 km/h (1 Bft)
31/01/2022 07:00 7,5 C 85 % 1013,7 hPa 0,0 l/m 3,0 km/h (1 Bft) O-NO 0,00 h 0,025 mm 6 W/m 5,2 C 7,4 C 5,6 km/h (1 Bft)
31/01/2022 08:00 7,1 C 86 % 1012,7 hPa 0,0 l/m 0,5 km/h (0 Bft) O-NO 0,00 h 0,000 mm 34 W/m 4,9 C 7,1 C 1,2 km/h (1 Bft)
31/01/2022 09:00 8,2 C 86 % 1011,7 hPa 0,0 l/m 0,1 km/h (0 Bft) O-NO 0,67 h 0,025 mm 212 W/m 6,0 C 8,2 C 0,3 km/h (0 Bft)
31/01/2022 10:00 10,8 C 78 % 1010,3 hPa 0,0 l/m 0,0 km/h (0 Bft) N 0,32 h 0,102 mm 198 W/m 7,2 C 10,8 C 0,0 km/h (0 Bft)
31/01/2022 11:00 10,8 C 78 % 1009,3 hPa 0,0 l/m 0,0 km/h (0 Bft) N 0,05 h 0,102 mm 209 W/m 7,1 C 10,8 C 0,0 km/h (0 Bft)
31/01/2022 12:00 11,5 C 74 % 1007,8 hPa 0,0 l/m 0,4 km/h (0 Bft) E 0,25 h 0,102 mm 235 W/m 7,1 C 11,5 C 1,4 km/h (1 Bft)
31/01/2022 13:00 11,7 C 74 % 1006,9 hPa 0,0 l/m 0,2 km/h (0 Bft) E-SE 0,52 h 0,127 mm 302 W/m 7,3 C 11,7 C 1,5 km/h (1 Bft)
31/01/2022 14:00 13,0 C 70 % 1005,7 hPa 0,0 l/m 0,4 km/h (0 Bft) E 0,70 h 0,152 mm 264 W/m 7,8 C 13,0 C 1,4 km/h (1 Bft)
31/01/2022 15:00 12,5 C 72 % 1004,5 hPa 0,0 l/m 0,0 km/h (0 Bft) N 0,30 h 0,127 mm 153 W/m 7,6 C 12,5 C 0,0 km/h (0 Bft)
31/01/2022 16:00 12,9 C 72 % 1003,6 hPa 0,0 l/m 0,0 km/h (0 Bft) N 1,00 h 0,076 mm 127 W/m 8,0 C 12,9 C 0,0 km/h (0 Bft)
31/01/2022 17:00 10,8 C 77 % 1003,4 hPa 0,0 l/m 0,0 km/h (0 Bft) N 0,13 h 0,076 mm 21 W/m 6,9 C 10,8 C 0,0 km/h (0 Bft)
31/01/2022 18:00 8,5 C 84 % 1004,2 hPa 0,0 l/m 0,0 km/h (0 Bft) N 0,00 h 0,000 mm 0 W/m 5,9 C 8,5 C 0,0 km/h (0 Bft)
31/01/2022 19:00 7,3 C 88 % 1005,5 hPa 0,0 l/m 0,1 km/h (0 Bft) E-SE 0,00 h 0,000 mm 0 W/m 5,3 C 7,3 C 0,3 km/h (0 Bft)
31/01/2022 20:00 6,6 C 90 % 1007,5 hPa 0,0 l/m 0,5 km/h (0 Bft) E 0,00 h 0,000 mm 0 W/m 5,1 C 6,6 C 1,4 km/h (1 Bft)
31/01/2022 21:00 7,4 C 91 % 1008,6 hPa 0,0 l/m 3,2 km/h (1 Bft) N-NO 0,00 h 0,000 mm 0 W/m 6,1 C 7,2 C 6,1 km/h (2 Bft)
31/01/2022 22:00 7,9 C 84 % 1009,0 hPa 0,0 l/m 2,2 km/h (1 Bft) NO 0,00 h 0,000 mm 0 W/m 5,3 C 7,8 C 4,7 km/h (1 Bft)
31/01/2022 23:00 7,1 C 80 % 1009,6 hPa 0,0 l/m 0,4 km/h (0 Bft) NO 0,00 h 0,025 mm 0 W/m 3,8 C 7,1 C 1,6 km/h (1 Bft)
01/02/2022 00:00 6,4 C 80 % 1010,6 hPa 0,0 l/m 2,4 km/h (1 Bft) NO 0,00 h 0,000 mm 0 W/m 3,2 C 6,3 C 4,5 km/h (1 Bft)
01/02/2022 01:00 6,3 C 71 % 1010,9 hPa 0,0 l/m 3,6 km/h (1 Bft) NO 0,00 h 0,025 mm 0 W/m 1,4 C 6,0 C 6,4 km/h (2 Bft)
01/02/2022 02:00 6,1 C 55 % 1011,1 hPa 0,0 l/m 3,2 km/h (1 Bft) NO 0,00 h 0,025 mm 0 W/m -2,4 C 5,9 C 6,0 km/h (2 Bft)
01/02/2022 03:00 6,3 C 47 % 1011,1 hPa 0,0 l/m 2,3 km/h (1 Bft) NO 0,00 h 0,025 mm 0 W/m -4,0 C 6,2 C 4,6 km/h (1 Bft)
01/02/2022 04:00 6,5 C 43 % 1011,0 hPa 0,0 l/m 0,6 km/h (0 Bft) NO 0,00 h 0,051 mm 0 W/m -5,2 C 6,5 C 1,8 km/h (1 Bft)
01/02/2022 05:00 6,0 C 42 % 1011,5 hPa 0,0 l/m 2,2 km/h (1 Bft) O-NO 0,00 h 0,025 mm 0 W/m -5,9 C 5,7 C 3,2 km/h (1 Bft)
01/02/2022 06:00 5,7 C 42 % 1012,1 hPa 0,0 l/m 0,3 km/h (0 Bft) O-NO 0,00 h 0,051 mm 0 W/m -6,1 C 5,7 C 1,3 km/h (1 Bft)
01/02/2022 07:00 5,0 C 43 % 1013,1 hPa 0,0 l/m 0,4 km/h (0 Bft) O-NO 0,02 h 0,025 mm 10 W/m -6,5 C 5,0 C 0,8 km/h (0 Bft)
01/02/2022 08:00 6,0 C 42 % 1013,7 hPa 0,0 l/m 0,1 km/h (0 Bft) O-NO 1,00 h 0,000 mm 80 W/m -5,9 C 6,0 C 0,3 km/h (0 Bft)
01/02/2022 09:00 9,0 C 41 % 1013,9 hPa 0,0 l/m 0,0 km/h (0 Bft) N 1,00 h 0,051 mm 218 W/m -3,6 C 9,0 C 0,0 km/h (0 Bft)
01/02/2022 10:00 11,7 C 40 % 1014,3 hPa 0,0 l/m 0,6 km/h (0 Bft) O 1,00 h 0,102 mm 342 W/m -1,4 C 11,7 C 1,7 km/h (1 Bft)
01/02/2022 11:00 13,7 C 35 % 1014,5 hPa 0,0 l/m 1,0 km/h (0 Bft) O-SO 1,00 h 0,178 mm 427 W/m -1,6 C 13,7 C 2,7 km/h (1 Bft)
01/02/2022 12:00 15,7 C 30 % 1014,4 hPa 0,0 l/m 0,5 km/h (0 Bft) O-SO 1,00 h 0,229 mm 465 W/m -1,7 C 15,7 C 1,9 km/h (1 Bft)
01/02/2022 13:00 17,1 C 29 % 1013,7 hPa 0,0 l/m 0,5 km/h (0 Bft) SO 1,00 h 0,254 mm 449 W/m -1,3 C 17,1 C 1,7 km/h (1 Bft)
01/02/2022 14:00 16,7 C 31 % 1013,8 hPa 0,0 l/m 0,7 km/h (0 Bft) E-SE 1,00 h 0,254 mm 383 W/m -0,7 C 16,7 C 3,1 km/h (1 Bft)
01/02/2022 15:00 16,1 C 36 % 1013,8 hPa 0,0 l/m 0,1 km/h (0 Bft) E 1,00 h 0,229 mm 273 W/m 0,9 C 16,1 C 0,9 km/h (0 Bft)
01/02/2022 16:00 14,5 C 43 % 1014,1 hPa 0,0 l/m 0,0 km/h (0 Bft) N 1,00 h 0,152 mm 138 W/m 2,1 C 14,5 C 0,2 km/h (0 Bft)
01/02/2022 17:00 12,2 C 48 % 1014,7 hPa 0,0 l/m 0,0 km/h (0 Bft) N 0,13 h 0,076 mm 19 W/m 1,4 C 12,2 C 0,0 km/h (0 Bft)
01/02/2022 18:00 9,3 C 56 % 1015,0 hPa 0,0 l/m 0,0 km/h (0 Bft) N 0,00 h 0,025 mm 0 W/m 1,1 C 9,3 C 0,0 km/h (0 Bft)
01/02/2022 19:00 8,0 C 60 % 1014,9 hPa 0,0 l/m 0,0 km/h (0 Bft) N 0,00 h 0,000 mm 0 W/m 0,7 C 8,0 C 0,0 km/h (0 Bft)
01/02/2022 20:00 7,6 C 57 % 1014,4 hPa 0,0 l/m 0,0 km/h (0 Bft) N 0,00 h 0,025 mm 0 W/m -0,4 C 7,6 C 0,1 km/h (0 Bft)
01/02/2022 21:00 7,2 C 56 % 1014,2 hPa 0,0 l/m 0,1 km/h (0 Bft) E-SE 0,00 h 0,025 mm 0 W/m -0,9 C 7,2 C 0,7 km/h (0 Bft)
01/02/2022 22:00 7,2 C 54 % 1013,8 hPa 0,0 l/m 0,0 km/h (0 Bft) E-SE 0,00 h 0,025 mm 0 W/m -1,5 C 7,2 C 0,5 km/h (0 Bft)
01/02/2022 23:00 7,1 C 53 % 1013,1 hPa 0,0 l/m 0,4 km/h (0 Bft) E-SE 0,00 h 0,025 mm 0 W/m -1,9 C 7,1 C 1,5 km/h (1 Bft)
02/02/2022 00:00 7,3 C 51 % 1012,5 hPa 0,0 l/m 0,2 km/h (0 Bft) E 0,00 h 0,025 mm 0 W/m -2,1 C 7,3 C 1,4 km/h (1 Bft)
02/02/2022 01:00 7,1 C 53 % 1012,1 hPa 0,0 l/m 0,3 km/h (0 Bft) E 0,00 h 0,025 mm 0 W/m -1,9 C 7,1 C 0,9 km/h (0 Bft)
02/02/2022 02:00 6,9 C 54 % 1011,5 hPa 0,0 l/m 0,8 km/h (0 Bft) E 0,00 h 0,025 mm 0 W/m -1,7 C 6,9 C 2,5 km/h (1 Bft)
02/02/2022 03:00 7,1 C 55 % 1011,0 hPa 0,0 l/m 0,5 km/h (0 Bft) SO 0,00 h 0,025 mm 0 W/m -1,3 C 7,1 C 2,0 km/h (1 Bft)
02/02/2022 04:00 7,1 C 56 % 1010,8 hPa 0,0 l/m 0,8 km/h (0 Bft) SO 0,00 h 0,025 mm 0 W/m -1,1 C 7,1 C 2,1 km/h (1 Bft)
02/02/2022 05:00 6,7 C 56 % 1010,8 hPa 0,0 l/m 0,5 km/h (0 Bft) SO 0,00 h 0,025 mm 0 W/m -1,3 C 6,7 C 1,1 km/h (0 Bft)
02/02/2022 06:00 6,8 C 58 % 1010,9 hPa 0,0 l/m 0,7 km/h (0 Bft) SO 0,00 h 0,025 mm 0 W/m -0,9 C 6,8 C 1,5 km/h (1 Bft)
02/02/2022 07:00 6,7 C 64 % 1011,4 hPa 0,0 l/m 0,7 km/h (0 Bft) SO 0,03 h 0,025 mm 10 W/m 0,3 C 6,7 C 1,8 km/h (1 Bft)
02/02/2022 08:00 7,6 C 59 % 1011,7 hPa 0,0 l/m 0,2 km/h (0 Bft) SO 0,95 h 0,000 mm 77 W/m 0,0 C 7,6 C 0,6 km/h (0 Bft)
02/02/2022 09:00 11,4 C 51 % 1011,6 hPa 0,0 l/m 0,0 km/h (0 Bft) N 1,00 h 0,051 mm 216 W/m 1,4 C 11,4 C 0,1 km/h (0 Bft)
02/02/2022 10:00 15,4 C 42 % 1011,8 hPa 0,0 l/m 0,0 km/h (0 Bft) N 1,00 h 0,102 mm 341 W/m 2,6 C 15,4 C 0,0 km/h (0 Bft)
02/02/2022 11:00 18,4 C 35 % 1012,4 hPa 0,0 l/m 0,0 km/h (0 Bft) N 1,00 h 0,178 mm 430 W/m 2,5 C 18,4 C 0,0 km/h (0 Bft)
02/02/2022 12:00 20,5 C 35 % 1012,2 hPa 0,0 l/m 0,1 km/h (0 Bft) O-SO 1,00 h 0,254 mm 467 W/m 4,6 C 20,5 C 0,3 km/h (0 Bft)
02/02/2022 13:00 21,1 C 31 % 1012,1 hPa 0,0 l/m 0,1 km/h (0 Bft) SO 1,00 h 0,279 mm 452 W/m 3,3 C 21,1 C 0,5 km/h (0 Bft)
02/02/2022 14:00 22,2 C 26 % 1011,8 hPa 0,0 l/m 0,0 km/h (0 Bft) N 1,00 h 0,279 mm 387 W/m 1,9 C 22,2 C 0,1 km/h (0 Bft)
02/02/2022 15:00 22,3 C 27 % 1012,0 hPa 0,0 l/m 0,0 km/h (0 Bft) N 1,00 h 0,254 mm 277 W/m 2,4 C 22,3 C 0,4 km/h (0 Bft)
02/02/2022 16:00 19,9 C 30 % 1012,5 hPa 0,0 l/m 0,0 km/h (0 Bft) N 1,00 h 0,178 mm 143 W/m 1,9 C 19,9 C 0,1 km/h (0 Bft)
02/02/2022 17:00 17,0 C 40 % 1012,9 hPa 0,0 l/m 0,0 km/h (0 Bft) N 0,10 h 0,102 mm 19 W/m 3,2 C 17,0 C 0,0 km/h (0 Bft)
02/02/2022 18:00 14,3 C 43 % 1013,5 hPa 0,0 l/m 0,0 km/h (0 Bft) N 0,00 h 0,025 mm 0 W/m 1,8 C 14,3 C 0,0 km/h (0 Bft)
02/02/2022 19:00 12,5 C 53 % 1014,2 hPa 0,0 l/m 0,0 km/h (0 Bft) N 0,00 h 0,000 mm 0 W/m 3,1 C 12,5 C 0,0 km/h (0 Bft)
02/02/2022 20:00 11,6 C 52 % 1014,8 hPa 0,0 l/m 0,0 km/h (0 Bft) N 0,00 h 0,025 mm 0 W/m 2,1 C 11,6 C 0,0 km/h (0 Bft)
02/02/2022 21:00 11,5 C 46 % 1015,4 hPa 0,0 l/m 0,0 km/h (0 Bft) N 0,00 h 0,025 mm 0 W/m 0,4 C 11,5 C 0,0 km/h (0 Bft)
02/02/2022 22:00 11,4 C 47 % 1016,0 hPa 0,0 l/m 0,3 km/h (0 Bft) S-SO 0,00 h 0,051 mm 0 W/m 0,6 C 11,4 C 0,5 km/h (0 Bft)
02/02/2022 23:00 10,4 C 51 % 1016,4 hPa 0,0 l/m 0,1 km/h (0 Bft) S-SO 0,00 h 0,051 mm 0 W/m 0,8 C 10,4 C 0,2 km/h (0 Bft)
03/02/2022 00:00 10,3 C 51 % 1016,7 hPa 0,0 l/m 0,0 km/h (0 Bft) N 0,00 h 0,025 mm 0 W/m 0,6 C 10,3 C 0,3 km/h (0 Bft)
03/02/2022 01:00 10,3 C 50 % 1017,1 hPa 0,0 l/m 0,3 km/h (0 Bft) S-SO 0,00 h 0,025 mm 0 W/m 0,3 C 10,3 C 1,0 km/h (0 Bft)
03/02/2022 02:00 10,6 C 50 % 1017,5 hPa 0,0 l/m 0,2 km/h (0 Bft) S-SO 0,00 h 0,025 mm 0 W/m 0,7 C 10,6 C 0,7 km/h (0 Bft)
03/02/2022 03:00 10,8 C 47 % 1017,4 hPa 0,0 l/m 0,1 km/h (0 Bft) S-SO 0,00 h 0,025 mm 0 W/m -0,2 C 10,8 C 0,6 km/h (0 Bft)
03/02/2022 04:00 11,0 C 46 % 1017,3 hPa 0,0 l/m 0,6 km/h (0 Bft) S-SO 0,00 h 0,025 mm 0 W/m -0,2 C 11,0 C 2,3 km/h (1 Bft)
03/02/2022 05:00 11,6 C 44 % 1017,8 hPa 0,0 l/m 0,9 km/h (0 Bft) SO 0,00 h 0,051 mm 0 W/m -0,2 C 11,6 C 3,2 km/h (1 Bft)
03/02/2022 06:00 10,7 C 46 % 1018,4 hPa 0,0 l/m 0,3 km/h (0 Bft) O-SO 0,00 h 0,051 mm 0 W/m -0,4 C 10,7 C 1,4 km/h (1 Bft)
03/02/2022 07:00 10,8 C 46 % 1018,6 hPa 0,0 l/m 0,0 km/h (0 Bft) N 0,02 h 0,051 mm 8 W/m -0,5 C 10,8 C 0,5 km/h (0 Bft)
03/02/2022 08:00 11,4 C 47 % 1019,2 hPa 0,0 l/m 1,0 km/h (0 Bft) SO 0,78 h 0,000 mm 76 W/m 0,4 C 11,4 C 1,7 km/h (1 Bft)
03/02/2022 09:00 12,1 C 49 % 1020,3 hPa 0,0 l/m 0,7 km/h (0 Bft) N-NE 0,87 h 0,051 mm 183 W/m 1,7 C 12,1 C 3,4 km/h (1 Bft)
03/02/2022 10:00 13,9 C 57 % 1021,0 hPa 0,0 l/m 0,3 km/h (0 Bft) N-NE 0,83 h 0,102 mm 310 W/m 5,5 C 13,9 C 1,9 km/h (1 Bft)
03/02/2022 11:00 15,3 C 75 % 1021,6 hPa 0,0 l/m 0,8 km/h (0 Bft) E 0,15 h 0,152 mm 209 W/m 10,9 C 15,3 C 3,3 km/h (1 Bft)
03/02/2022 12:00 15,4 C 77 % 1021,3 hPa 0,0 l/m 1,5 km/h (1 Bft) E-SE 0,40 h 0,127 mm 273 W/m 11,3 C 15,4 C 4,5 km/h (1 Bft)
03/02/2022 13:00 15,4 C 78 % 1020,7 hPa 0,0 l/m 1,1 km/h (1 Bft) E 0,48 h 0,152 mm 298 W/m 11,5 C 15,4 C 4,2 km/h (1 Bft)
03/02/2022 14:00 15,0 C 77 % 1020,3 hPa 0,0 l/m 1,2 km/h (1 Bft) E 0,27 h 0,152 mm 207 W/m 11,1 C 15,0 C 4,4 km/h (1 Bft)
03/02/2022 15:00 13,8 C 82 % 1020,2 hPa 0,0 l/m 0,9 km/h (0 Bft) E 0,00 h 0,102 mm 82 W/m 10,7 C 13,8 C 3,1 km/h (1 Bft)
03/02/2022 16:00 13,0 C 83 % 1020,1 hPa 0,0 l/m 0,4 km/h (0 Bft) NE 0,00 h 0,051 mm 30 W/m 10,2 C 13,0 C 2,1 km/h (1 Bft)
03/02/2022 17:00 12,5 C 87 % 1020,3 hPa 0,0 l/m 0,3 km/h (0 Bft) NE 0,00 h 0,025 mm 8 W/m 10,4 C 12,5 C 0,9 km/h (0 Bft)
03/02/2022 18:00 11,9 C 88 % 1020,4 hPa 0,0 l/m 0,1 km/h (0 Bft) NE 0,00 h 0,000 mm 0 W/m 10,0 C 11,9 C 0,6 km/h (0 Bft)
03/02/2022 19:00 10,8 C 89 % 1019,7 hPa 0,0 l/m 0,5 km/h (0 Bft) NE 0,00 h 0,000 mm 0 W/m 9,0 C 10,8 C 1,0 km/h (0 Bft)
03/02/2022 20:00 10,9 C 93 % 1020,3 hPa 0,0 l/m 0,7 km/h (0 Bft) NE 0,00 h 0,000 mm 0 W/m 9,9 C 10,9 C 1,5 km/h (1 Bft)
03/02/2022 21:00 11,0 C 93 % 1020,3 hPa 0,0 l/m 0,0 km/h (0 Bft) N 0,00 h 0,000 mm 0 W/m 9,9 C 11,0 C 0,0 km/h (0 Bft)
03/02/2022 22:00 10,8 C 93 % 1019,6 hPa 0,0 l/m 0,0 km/h (0 Bft) N 0,00 h 0,000 mm 0 W/m 9,7 C 10,8 C 0,1 km/h (0 Bft)
03/02/2022 23:00 10,6 C 93 % 1019,0 hPa 0,0 l/m 0,0 km/h (0 Bft) N 0,00 h 0,000 mm 0 W/m 9,5 C 10,6 C 0,1 km/h (0 Bft)
04/02/2022 00:00 10,3 C 93 % 1019,2 hPa 0,0 l/m 0,0 km/h (0 Bft) N 0,00 h 0,000 mm 0 W/m 9,2 C 10,3 C 0,0 km/h (0 Bft)
04/02/2022 01:00 10,3 C 94 % 1018,7 hPa 0,0 l/m 0,0 km/h (0 Bft) N 0,00 h 0,000 mm 0 W/m 9,3 C 10,3 C 0,0 km/h (0 Bft)
04/02/2022 02:00 10,2 C 93 % 1018,1 hPa 0,0 l/m 0,0 km/h (0 Bft) N 0,00 h 0,000 mm 0 W/m 9,1 C 10,2 C 0,0 km/h (0 Bft)
04/02/2022 03:00 9,9 C 93 % 1017,6 hPa 0,0 l/m 0,0 km/h (0 Bft) N 0,00 h 0,000 mm 0 W/m 8,8 C 9,9 C 0,0 km/h (0 Bft)
04/02/2022 04:00 9,7 C 88 % 1017,2 hPa 0,0 l/m 0,0 km/h (0 Bft) N 0,00 h 0,000 mm 0 W/m 7,8 C 9,7 C 0,0 km/h (0 Bft)
04/02/2022 05:00 9,6 C 83 % 1017,1 hPa 0,0 l/m 0,0 km/h (0 Bft) NE 0,00 h 0,000 mm 0 W/m 6,9 C 9,6 C 0,3 km/h (0 Bft)
04/02/2022 06:00 9,6 C 79 % 1016,7 hPa 0,0 l/m 0,7 km/h (0 Bft) N-NO 0,00 h 0,000 mm 0 W/m 6,3 C 9,6 C 2,2 km/h (1 Bft)
04/02/2022 07:00 9,9 C 76 % 1016,9 hPa 0,0 l/m 2,2 km/h (1 Bft) N-NO 0,00 h 0,025 mm 5 W/m 5,9 C 9,9 C 5,0 km/h (1 Bft)
04/02/2022 08:00 10,1 C 76 % 1017,1 hPa 0,0 l/m 1,6 km/h (1 Bft) N-NO 0,00 h 0,000 mm 29 W/m 6,0 C 10,1 C 3,3 km/h (1 Bft)
04/02/2022 09:00 10,4 C 78 % 1017,2 hPa 0,0 l/m 0,0 km/h (0 Bft) N 0,03 h 0,025 mm 99 W/m 6,8 C 10,4 C 0,0 km/h (0 Bft)
04/02/2022 10:00 11,9 C 76 % 1017,3 hPa 0,0 l/m 0,0 km/h (0 Bft) N 0,00 h 0,051 mm 159 W/m 7,7 C 11,9 C 0,0 km/h (0 Bft)
04/02/2022 11:00 13,0 C 74 % 1017,5 hPa 0,0 l/m 0,1 km/h (0 Bft) N-NO 0,02 h 0,076 mm 205 W/m 8,4 C 13,0 C 0,5 km/h (0 Bft)
04/02/2022 12:00 13,7 C 71 % 1016,9 hPa 0,0 l/m 1,5 km/h (1 Bft) E 0,03 h 0,102 mm 237 W/m 8,6 C 13,7 C 3,6 km/h (1 Bft)
04/02/2022 13:00 14,5 C 69 % 1016,1 hPa 0,0 l/m 1,0 km/h (0 Bft) E 0,33 h 0,127 mm 287 W/m 8,8 C 14,5 C 3,1 km/h (1 Bft)
04/02/2022 14:00 13,8 C 70 % 1015,5 hPa 0,0 l/m 1,4 km/h (1 Bft) E-SE 0,00 h 0,152 mm 145 W/m 8,4 C 13,8 C 3,5 km/h (1 Bft)
04/02/2022 15:00 13,1 C 73 % 1015,4 hPa 0,0 l/m 0,6 km/h (0 Bft) E-SE 0,00 h 0,076 mm 74 W/m 8,3 C 13,1 C 2,1 km/h (1 Bft)
04/02/2022 16:00 12,2 C 77 % 1015,2 hPa 0,0 l/m 0,0 km/h (0 Bft) N 0,00 h 0,051 mm 31 W/m 8,4 C 12,2 C 0,1 km/h (0 Bft)
04/02/2022 17:00 11,8 C 81 % 1014,9 hPa 0,0 l/m 0,0 km/h (0 Bft) N 0,00 h 0,025 mm 15 W/m 8,6 C 11,8 C 0,0 km/h (0 Bft)
04/02/2022 18:00 11,1 C 81 % 1015,1 hPa 0,0 l/m 0,0 km/h (0 Bft) N 0,00 h 0,000 mm 0 W/m 7,9 C 11,1 C 0,0 km/h (0 Bft)
04/02/2022 19:00 10,7 C 82 % 1015,4 hPa 0,0 l/m 0,0 km/h (0 Bft) N 0,00 h 0,000 mm 0 W/m 7,8 C 10,7 C 0,0 km/h (0 Bft)
04/02/2022 20:00 10,4 C 83 % 1015,3 hPa 0,0 l/m 0,0 km/h (0 Bft) N 0,00 h 0,025 mm 0 W/m 7,7 C 10,4 C 0,0 km/h (0 Bft)
04/02/2022 21:00 9,9 C 84 % 1014,9 hPa 0,0 l/m 0,0 km/h (0 Bft) N 0,00 h 0,000 mm 0 W/m 7,3 C 9,9 C 0,0 km/h (0 Bft)
04/02/2022 22:00 9,4 C 86 % 1014,9 hPa 0,0 l/m 0,0 km/h (0 Bft) N 0,00 h 0,000 mm 0 W/m 7,1 C 9,4 C 0,0 km/h (0 Bft)
04/02/2022 23:00 9,3 C 85 % 1014,8 hPa 0,0 l/m 0,0 km/h (0 Bft) E-SE 0,00 h 0,000 mm 0 W/m 6,9 C 9,3 C 0,1 km/h (0 Bft)
05/02/2022 00:00 9,4 C 82 % 1014,9 hPa 0,0 l/m 0,0 km/h (0 Bft) N 0,00 h 0,000 mm 0 W/m 6,5 C 9,4 C 0,0 km/h (0 Bft)
05/02/2022 01:00 9,2 C 81 % 1015,1 hPa 0,0 l/m 0,0 km/h (0 Bft) N 0,00 h 0,000 mm 0 W/m 6,1 C 9,2 C 0,1 km/h (0 Bft)
05/02/2022 02:00 8,6 C 83 % 1015,3 hPa 0,0 l/m 0,0 km/h (0 Bft) N 0,00 h 0,025 mm 0 W/m 5,8 C 8,6 C 0,1 km/h (0 Bft)
05/02/2022 03:00 8,2 C 84 % 1015,5 hPa 0,0 l/m 0,0 km/h (0 Bft) N 0,00 h 0,000 mm 0 W/m 5,6 C 8,2 C 0,2 km/h (0 Bft)
05/02/2022 04:00 8,2 C 83 % 1015,6 hPa 0,0 l/m 0,2 km/h (0 Bft) E-SE 0,00 h 0,000 mm 0 W/m 5,6 C 8,2 C 0,7 km/h (0 Bft)
05/02/2022 05:00 8,4 C 81 % 1015,8 hPa 0,0 l/m 0,7 km/h (0 Bft) E-SE 0,00 h 0,000 mm 0 W/m 5,3 C 8,4 C 2,1 km/h (1 Bft)
05/02/2022 06:00 8,0 C 80 % 1016,1 hPa 0,0 l/m 0,9 km/h (0 Bft) O-NO 0,00 h 0,025 mm 0 W/m 4,8 C 8,0 C 2,5 km/h (1 Bft)
05/02/2022 07:00 7,8 C 81 % 1016,5 hPa 0,0 l/m 0,0 km/h (0 Bft) N 0,03 h 0,025 mm 9 W/m 4,8 C 7,8 C 0,3 km/h (0 Bft)
05/02/2022 08:00 8,1 C 82 % 1017,0 hPa 0,0 l/m 0,0 km/h (0 Bft) N 0,42 h 0,000 mm 71 W/m 5,2 C 8,1 C 0,3 km/h (0 Bft)
05/02/2022 09:00 10,4 C 79 % 1017,5 hPa 0,0 l/m 0,0 km/h (0 Bft) N 0,63 h 0,025 mm 169 W/m 6,9 C 10,4 C 0,0 km/h (0 Bft)
05/02/2022 10:00 12,3 C 72 % 1017,9 hPa 0,0 l/m 0,0 km/h (0 Bft) N 0,55 h 0,076 mm 251 W/m 7,4 C 12,3 C 0,0 km/h (0 Bft)
05/02/2022 11:00 15,6 C 64 % 1018,2 hPa 0,0 l/m 0,2 km/h (0 Bft) E 1,00 h 0,127 mm 427 W/m 8,9 C 15,6 C 1,2 km/h (1 Bft)
05/02/2022 12:00 17,4 C 58 % 1018,0 hPa 0,0 l/m 1,2 km/h (1 Bft) S 1,00 h 0,229 mm 460 W/m 9,0 C 17,4 C 3,4 km/h (1 Bft)
05/02/2022 13:00 17,7 C 59 % 1017,8 hPa 0,0 l/m 2,0 km/h (1 Bft) S-SO 1,00 h 0,254 mm 444 W/m 9,6 C 17,7 C 5,1 km/h (1 Bft)
05/02/2022 14:00 17,6 C 59 % 1017,6 hPa 0,0 l/m 1,3 km/h (1 Bft) S-SE 1,00 h 0,254 mm 383 W/m 9,6 C 17,6 C 4,0 km/h (1 Bft)
05/02/2022 15:00 17,3 C 62 % 1017,9 hPa 0,0 l/m 0,1 km/h (0 Bft) S-SE 1,00 h 0,229 mm 275 W/m 10,0 C 17,3 C 0,9 km/h (0 Bft)
05/02/2022 16:00 16,2 C 65 % 1018,5 hPa 0,0 l/m 0,0 km/h (0 Bft) S-SE 1,00 h 0,152 mm 146 W/m 9,7 C 16,2 C 0,2 km/h (0 Bft)
05/02/2022 17:00 13,3 C 73 % 1019,2 hPa 0,0 l/m 0,0 km/h (0 Bft) N 0,08 h 0,076 mm 21 W/m 8,5 C 13,3 C 0,0 km/h (0 Bft)
05/02/2022 18:00 11,0 C 80 % 1020,0 hPa 0,0 l/m 0,0 km/h (0 Bft) N 0,00 h 0,025 mm 0 W/m 7,7 C 11,0 C 0,0 km/h (0 Bft)
05/02/2022 19:00 9,9 C 84 % 1020,7 hPa 0,0 l/m 0,0 km/h (0 Bft) N 0,00 h 0,000 mm 0 W/m 7,4 C 9,9 C 0,0 km/h (0 Bft)
05/02/2022 20:00 9,4 C 87 % 1021,3 hPa 0,0 l/m 0,0 km/h (0 Bft) N 0,00 h 0,000 mm 0 W/m 7,2 C 9,4 C 0,0 km/h (0 Bft)
05/02/2022 21:00 8,9 C 88 % 1021,8 hPa 0,0 l/m 0,0 km/h (0 Bft) N 0,00 h 0,000 mm 0 W/m 7,0 C 8,9 C 0,1 km/h (0 Bft)
05/02/2022 22:00 8,7 C 87 % 1021,9 hPa 0,0 l/m 0,2 km/h (0 Bft) S-SE 0,00 h 0,000 mm 0 W/m 6,7 C 8,7 C 0,6 km/h (0 Bft)
05/02/2022 23:00 8,6 C 87 % 1022,2 hPa 0,0 l/m 0,0 km/h (0 Bft) N 0,00 h 0,000 mm 0 W/m 6,5 C 8,6 C 0,2 km/h (0 Bft)
06/02/2022 00:00 8,3 C 82 % 1022,4 hPa 0,0 l/m 0,0 km/h (0 Bft) N 0,00 h 0,000 mm 0 W/m 5,4 C 8,3 C 0,0 km/h (0 Bft)
06/02/2022 01:00 8,1 C 77 % 1022,2 hPa 0,0 l/m 0,0 km/h (0 Bft) N 0,00 h 0,000 mm 0 W/m 4,3 C 8,1 C 0,1 km/h (0 Bft)
06/02/2022 02:00 7,9 C 73 % 1022,3 hPa 0,0 l/m 0,1 km/h (0 Bft) S-SE 0,00 h 0,025 mm 0 W/m 3,3 C 7,9 C 0,6 km/h (0 Bft)
06/02/2022 03:00 7,7 C 74 % 1022,1 hPa 0,0 l/m 0,0 km/h (0 Bft) N 0,00 h 0,025 mm 0 W/m 3,5 C 7,7 C 0,1 km/h (0 Bft)
06/02/2022 04:00 7,7 C 76 % 1021,8 hPa 0,0 l/m 0,0 km/h (0 Bft) N 0,00 h 0,025 mm 0 W/m 3,7 C 7,7 C 0,0 km/h (0 Bft)
06/02/2022 05:00 7,6 C 74 % 1021,6 hPa 0,0 l/m 0,0 km/h (0 Bft) N 0,00 h 0,025 mm 0 W/m 3,3 C 7,6 C 0,0 km/h (0 Bft)
06/02/2022 06:00 7,4 C 74 % 1021,5 hPa 0,0 l/m 0,1 km/h (0 Bft) S-SE 0,00 h 0,025 mm 0 W/m 3,0 C 7,4 C 0,1 km/h (0 Bft)
06/02/2022 07:00 7,4 C 70 % 1021,6 hPa 0,0 l/m 0,0 km/h (0 Bft) S-SE 0,12 h 0,025 mm 11 W/m 2,2 C 7,4 C 0,4 km/h (0 Bft)
06/02/2022 08:00 7,8 C 71 % 1022,0 hPa 0,0 l/m 0,0 km/h (0 Bft) N 1,00 h 0,000 mm 91 W/m 2,9 C 7,8 C 0,0 km/h (0 Bft)
06/02/2022 09:00 10,7 C 68 % 1022,0 hPa 0,0 l/m 0,0 km/h (0 Bft) N 1,00 h 0,051 mm 233 W/m 4,9 C 10,7 C 0,0 km/h (0 Bft)
06/02/2022 10:00 13,5 C 62 % 1021,8 hPa 0,0 l/m 0,3 km/h (0 Bft) S-SE 1,00 h 0,102 mm 364 W/m 6,4 C 13,5 C 1,2 km/h (1 Bft)
06/02/2022 11:00 15,1 C 57 % 1021,4 hPa 0,0 l/m 0,4 km/h (0 Bft) S-SE 1,00 h 0,178 mm 459 W/m 6,6 C 15,1 C 1,6 km/h (1 Bft)
06/02/2022 12:00 16,7 C 55 % 1020,5 hPa 0,0 l/m 0,8 km/h (0 Bft) SE 1,00 h 0,254 mm 489 W/m 7,6 C 16,7 C 3,3 km/h (1 Bft)
06/02/2022 13:00 16,8 C 53 % 1019,3 hPa 0,0 l/m 0,9 km/h (0 Bft) SE 1,00 h 0,279 mm 468 W/m 7,2 C 16,8 C 3,1 km/h (1 Bft)
06/02/2022 14:00 17,6 C 55 % 1018,2 hPa 0,0 l/m 0,7 km/h (0 Bft) SE 1,00 h 0,254 mm 400 W/m 8,5 C 17,6 C 3,0 km/h (1 Bft)
06/02/2022 15:00 17,2 C 57 % 1017,7 hPa 0,0 l/m 0,5 km/h (0 Bft) SE 0,93 h 0,229 mm 274 W/m 8,7 C 17,2 C 1,9 km/h (1 Bft)
06/02/2022 16:00 15,6 C 63 % 1016,9 hPa 0,0 l/m 0,1 km/h (0 Bft) SE 0,30 h 0,152 mm 104 W/m 8,5 C 15,6 C 0,9 km/h (0 Bft)
06/02/2022 17:00 12,8 C 73 % 1016,2 hPa 0,0 l/m 0,1 km/h (0 Bft) SE 0,00 h 0,051 mm 23 W/m 8,0 C 12,8 C 1,3 km/h (1 Bft)
06/02/2022 18:00 10,9 C 79 % 1015,8 hPa 0,0 l/m 0,0 km/h (0 Bft) N 0,00 h 0,025 mm 0 W/m 7,3 C 10,9 C 0,2 km/h (0 Bft)
06/02/2022 19:00 10,1 C 78 % 1015,5 hPa 0,0 l/m 0,2 km/h (0 Bft) SE 0,00 h 0,000 mm 0 W/m 6,5 C 10,1 C 0,8 km/h (0 Bft)
06/02/2022 20:00 9,6 C 78 % 1014,9 hPa 0,0 l/m 0,0 km/h (0 Bft) SE 0,00 h 0,025 mm 0 W/m 6,1 C 9,6 C 0,4 km/h (0 Bft)
06/02/2022 21:00 8,6 C 78 % 1014,3 hPa 0,0 l/m 0,1 km/h (0 Bft) SE 0,00 h 0,025 mm 0 W/m 5,0 C 8,6 C 0,5 km/h (0 Bft)
06/02/2022 22:00 7,8 C 74 % 1014,1 hPa 0,0 l/m 0,2 km/h (0 Bft) SE 0,00 h 0,025 mm 0 W/m 3,4 C 7,8 C 0,4 km/h (0 Bft)
06/02/2022 23:00 7,5 C 78 % 1013,9 hPa 0,0 l/m 0,0 km/h (0 Bft) SE 0,00 h 0,025 mm 0 W/m 3,9 C 7,5 C 0,1 km/h (0 Bft)
Min-Date _ 01/02/22 02/02/22 31/01/22 - 31/01/22 - - - - 01/02/22 01/02/22 31/01/22
_ Min-Heure 07:41 14:19 17:15 - 00:00 - - - - 07:41 05:36 00:15
Minimum _ 4,8 C 23 % 1003,2 hPa - 0,0 km/h (0 Bft) - - - - -7,0 C 4,4 C 0,0 km/h (0 Bft)
Max-Date _ 02/02/22 03/02/22 06/02/22 31/01/22 01/02/22 - 31/01/22 02/02/22 04/02/22 03/02/22 02/02/22 31/01/22
_ Max-Heure 15:01 20:31 00:15 00:00 05:27 - 09:20 13:00 13:26 13:51 15:01 22:01
Maximum _ 23,1 C 94 % 1022,5 hPa 0,0 l/m 8,0 km/h
O-NO (2 Bft)
- 0,02 h 0,279 mm 647 W/m 12,1 C 23,1 C 14,5 km/h
NO (3 Bft)
Moyenne _ 10,9 C 67 % 1015,6 hPa #0,0 l/m 0,4 km/h (0 Bft) NO #42:27 h #10,144 mm 207 W/m 4,5 C 10,9 C 1,2 km/h (1 Bft)
Roquefort les pins